Time;durP1;ratioP1;P1;durP2;ratioP2;P2;SDS_P1;SDS_P2;PMS_P1;PMS_P2;Temp;Humidity;BMP_temperature;BMP_pressure;BME280_temperature;BME280_humidity;BME280_pressure;Samples;Min_cycle;Max_cycle;Signal;HPM_P1;HPM_P2
2020/12/08 00:00:45;;;;;;;19.23;12.38;;;2.40;81.90;;;;;;5035021;28;20021;-77
2020/12/08 00:03:11;;;;;;;19.45;12.27;;;2.30;81.40;;;;;;5035837;28;20029;-77
2020/12/08 00:05:36;;;;;;;17.08;11.50;;;2.30;80.70;;;;;;5018285;28;20025;-78
2020/12/08 00:08:05;;;;;;;16.70;10.95;;;2.30;80.50;;;;;;5018171;28;20029;-77
2020/12/08 00:10:31;;;;;;;17.23;11.20;;;2.40;80.40;;;;;;5036957;28;20079;-77
2020/12/08 00:12:56;;;;;;;20.60;12.70;;;2.30;80.10;;;;;;5036288;28;20030;-76
2020/12/08 00:15:22;;;;;;;18.20;11.50;;;2.40;80.00;;;;;;5018335;28;20040;-77
2020/12/08 00:17:48;;;;;;;19.33;11.82;;;2.30;79.50;;;;;;5035000;28;20033;-78
2020/12/08 00:20:16;;;;;;;18.58;11.82;;;2.30;79.50;;;;;;5034148;28;20074;-78
2020/12/08 00:22:41;;;;;;;17.65;11.32;;;2.30;79.60;;;;;;5033837;28;20026;-78
2020/12/08 00:25:09;;;;;;;19.08;12.45;;;2.40;79.60;;;;;;5034150;28;20505;-78
2020/12/08 00:27:38;;;;;;;16.63;10.98;;;2.40;79.50;;;;;;5033851;28;20024;-78
2020/12/08 00:30:12;;;;;;;18.63;11.75;;;2.40;79.10;;;;;;5033554;28;20171;-79
2020/12/08 00:32:43;;;;;;;18.90;12.45;;;2.40;78.60;;;;;;5033735;28;20021;-78
2020/12/08 00:35:09;;;;;;;19.10;12.40;;;2.30;78.70;;;;;;5033796;28;20029;-79
2020/12/08 00:37:36;;;;;;;17.63;11.48;;;2.30;78.90;;;;;;5033747;28;20025;-81
2020/12/08 00:40:03;;;;;;;17.33;11.27;;;2.30;79.10;;;;;;5033603;28;20033;-78
2020/12/08 00:42:29;;;;;;;19.08;12.18;;;2.30;79.30;;;;;;5033472;28;20017;-78
2020/12/08 00:44:54;;;;;;;19.42;12.20;;;2.40;79.60;;;;;;5033332;28;20124;-78
2020/12/08 00:47:20;;;;;;;16.67;11.15;;;2.40;79.60;;;;;;5033351;28;20073;-76
2020/12/08 00:49:46;;;;;;;16.52;11.00;;;2.50;79.70;;;;;;5033150;28;20461;-77
2020/12/08 00:52:11;;;;;;;18.38;11.88;;;2.50;79.60;;;;;;5033381;28;20140;-79
2020/12/08 00:54:37;;;;;;;19.20;12.57;;;2.50;79.60;;;;;;5033311;28;20029;-77
2020/12/08 00:57:03;;;;;;;16.42;11.55;;;2.50;79.70;;;;;;5033389;28;20049;-79
2020/12/08 00:59:28;;;;;;;17.75;11.90;;;2.50;79.50;;;;;;5015703;28;20112;-78
2020/12/08 01:02:00;;;;;;;18.35;12.20;;;2.50;79.50;;;;;;5033219;28;20029;-77
2020/12/08 01:04:27;;;;;;;18.23;11.88;;;2.50;79.30;;;;;;5033176;28;20470;-77
2020/12/08 01:06:52;;;;;;;19.02;13.57;;;2.50;79.20;;;;;;5033252;28;20036;-77
2020/12/08 01:09:18;;;;;;;22.70;13.85;;;2.40;78.60;;;;;;5033381;28;20398;-77
2020/12/08 01:11:44;;;;;;;18.77;11.77;;;2.30;78.80;;;;;;5035990;28;20034;-77
2020/12/08 01:14:13;;;;;;;19.58;12.77;;;2.30;79.10;;;;;;5045734;28;20045;-78
2020/12/08 01:16:40;;;;;;;18.40;12.10;;;2.30;79.40;;;;;;5031876;28;20093;-77
2020/12/08 01:19:06;;;;;;;20.05;13.10;;;2.30;79.60;;;;;;5034079;28;20021;-76
2020/12/08 01:21:31;;;;;;;20.92;12.80;;;2.30;79.50;;;;;;5015417;28;20516;-76
2020/12/08 01:23:57;;;;;;;22.33;13.88;;;2.30;79.60;;;;;;5033183;28;20022;-77
2020/12/08 01:26:24;;;;;;;20.27;13.77;;;2.20;79.10;;;;;;5033376;28;20033;-77
2020/12/08 01:28:50;;;;;;;20.30;12.80;;;2.30;79.20;;;;;;5033018;28;20479;-77
2020/12/08 01:31:15;;;;;;;19.80;12.98;;;2.20;79.00;;;;;;5033003;28;20034;-77
2020/12/08 01:33:41;;;;;;;19.13;12.73;;;2.20;79.10;;;;;;5032387;28;20071;-78
2020/12/08 01:36:07;;;;;;;18.52;12.75;;;2.20;79.20;;;;;;5032950;28;20029;-78
2020/12/08 01:38:32;;;;;;;20.13;12.98;;;2.20;79.00;;;;;;5033188;28;20079;-78
2020/12/08 01:40:58;;;;;;;19.65;12.80;;;2.20;79.10;;;;;;5033059;28;20025;-79
2020/12/08 01:43:23;;;;;;;21.98;14.25;;;2.20;79.20;;;;;;5032877;28;20037;-78
2020/12/08 01:45:49;;;;;;;20.92;13.88;;;2.20;79.30;;;;;;5032863;28;20028;-78
2020/12/08 01:48:15;;;;;;;20.85;13.50;;;2.10;79.40;;;;;;5032755;28;20046;-78
2020/12/08 01:50:41;;;;;;;19.92;12.82;;;2.10;79.60;;;;;;5032649;28;20072;-78
2020/12/08 01:53:10;;;;;;;21.08;13.07;;;2.10;79.70;;;;;;5032688;28;20053;-78
2020/12/08 01:55:38;;;;;;;21.67;13.38;;;2.10;80.10;;;;;;5032671;28;20485;-78
2020/12/08 01:58:23;;;;;;;20.10;11.88;;;2.10;80.00;;;;;;5032762;28;20456;-78
2020/12/08 02:00:49;;;;;;;19.92;13.05;;;2.10;80.00;;;;;;5032707;28;20018;-78
2020/12/08 02:03:15;;;;;;;24.15;15.25;;;2.10;80.00;;;;;;5032649;28;20040;-78
2020/12/08 02:05:41;;;;;;;20.25;12.77;;;2.10;80.10;;;;;;5014802;28;20107;-78
2020/12/08 02:08:07;;;;;;;23.40;14.05;;;2.10;80.20;;;;;;5032750;28;20049;-78
2020/12/08 02:10:33;;;;;;;23.50;14.93;;;2.10;80.40;;;;;;5032394;28;20034;-78
2020/12/08 02:12:59;;;;;;;26.10;16.13;;;2.10;81.00;;;;;;5032574;28;20022;-78
2020/12/08 02:15:29;;;;;;;24.95;15.27;;;2.20;80.40;;;;;;5032426;28;20026;-78
2020/12/08 02:17:55;;;;;;;24.98;15.70;;;2.10;80.00;;;;;;5014666;28;20033;-78
2020/12/08 02:20:21;;;;;;;21.60;14.40;;;2.10;80.20;;;;;;5032378;28;20025;-78
2020/12/08 02:22:46;;;;;;;23.30;14.63;;;2.10;80.20;;;;;;5014753;28;20040;-78
2020/12/08 02:25:12;;;;;;;21.00;13.70;;;2.10;80.20;;;;;;5032396;28;20398;-79
2020/12/08 02:27:37;;;;;;;26.10;15.30;;;2.00;80.20;;;;;;5032366;28;20064;-78
2020/12/08 02:30:04;;;;;;;25.52;14.90;;;2.00;81.00;;;;;;5032418;28;20037;-79
2020/12/08 02:32:30;;;;;;;24.48;15.00;;;2.00;80.40;;;;;;5032622;28;20443;-78
2020/12/08 02:34:56;;;;;;;24.73;14.73;;;1.90;80.50;;;;;;5032481;28;20117;-79
2020/12/08 02:37:22;;;;;;;24.33;15.02;;;1.80;80.80;;;;;;5032499;28;20461;-78
2020/12/08 02:39:47;;;;;;;22.23;14.35;;;1.90;81.00;;;;;;5032637;28;20076;-79
2020/12/08 02:42:15;;;;;;;24.75;15.75;;;1.90;81.10;;;;;;5032345;28;20496;-79
2020/12/08 02:44:41;;;;;;;25.83;15.43;;;1.90;81.10;;;;;;5032285;28;20109;-78
2020/12/08 02:47:06;;;;;;;24.60;14.93;;;1.80;81.20;;;;;;5035491;28;20137;-78
2020/12/08 02:49:32;;;;;;;26.38;15.60;;;1.80;81.20;;;;;;5035617;28;20069;-78
2020/12/08 02:51:57;;;;;;;25.98;14.93;;;1.80;81.10;;;;;;5035712;28;20024;-78
2020/12/08 02:54:23;;;;;;;26.98;15.90;;;1.80;80.90;;;;;;5035612;28;20382;-78
2020/12/08 02:56:49;;;;;;;26.17;14.88;;;1.80;80.80;;;;;;5035592;28;20064;-77
2020/12/08 02:59:15;;;;;;;28.13;16.08;;;1.80;80.80;;;;;;5035475;28;20078;-77
2020/12/08 03:01:40;;;;;;;27.58;16.48;;;1.80;80.80;;;;;;5035597;28;20479;-78
2020/12/08 03:04:06;;;;;;;27.77;16.02;;;1.80;81.10;;;;;;5035571;28;20029;-78
2020/12/08 03:06:31;;;;;;;31.60;17.73;;;1.80;81.30;;;;;;5035488;28;20029;-79
2020/12/08 03:08:57;;;;;;;29.98;17.70;;;1.80;81.40;;;;;;5035315;28;20025;-77
2020/12/08 03:11:32;;;;;;;27.95;16.48;;;1.70;81.50;;;;;;5035333;28;20056;-77
2020/12/08 03:13:58;;;;;;;28.90;17.35;;;1.70;81.60;;;;;;5035347;28;20482;-77
2020/12/08 03:16:23;;;;;;;29.17;16.33;;;1.70;81.60;;;;;;5035230;28;20121;-77
2020/12/08 03:18:49;;;;;;;27.60;15.80;;;1.70;81.60;;;;;;5035182;28;20100;-77
2020/12/08 03:21:15;;;;;;;31.00;17.58;;;1.70;81.40;;;;;;5035211;28;20045;-77
2020/12/08 03:23:40;;;;;;;30.08;17.35;;;1.70;81.30;;;;;;5035245;28;20067;-77
2020/12/08 03:26:06;;;;;;;28.65;16.48;;;1.70;81.50;;;;;;5042600;28;20017;-77
2020/12/08 03:28:31;;;;;;;30.48;17.67;;;1.70;81.40;;;;;;5036068;28;20052;-77
2020/12/08 03:30:57;;;;;;;31.33;17.63;;;1.80;81.40;;;;;;5050628;28;20487;-78
2020/12/08 03:33:23;;;;;;;32.30;17.63;;;1.70;81.50;;;;;;5036408;28;20017;-77
2020/12/08 03:35:48;;;;;;;34.28;18.75;;;1.80;81.50;;;;;;5017535;28;20594;-77
2020/12/08 03:38:14;;;;;;;30.75;17.27;;;1.80;82.30;;;;;;5035039;28;20104;-77
2020/12/08 03:40:40;;;;;;;28.90;16.40;;;1.80;81.50;;;;;;5034947;28;20100;-77
2020/12/08 03:43:06;;;;;;;32.38;17.60;;;1.80;81.60;;;;;;5034977;28;20378;-78
2020/12/08 03:45:31;;;;;;;32.88;17.52;;;1.80;81.70;;;;;;5034862;28;20030;-78
2020/12/08 03:47:57;;;;;;;29.90;16.95;;;1.80;81.80;;;;;;5016851;28;20099;-78
2020/12/08 03:50:23;;;;;;;32.90;18.77;;;1.70;82.00;;;;;;5016813;28;20044;-78
2020/12/08 03:52:48;;;;;;;36.50;19.08;;;1.70;82.10;;;;;;5034594;28;20045;-78
2020/12/08 03:55:14;;;;;;;34.53;18.23;;;1.60;82.20;;;;;;5034603;28;20061;-78
2020/12/08 03:57:39;;;;;;;36.28;19.80;;;1.60;82.40;;;;;;5034362;28;20524;-78
2020/12/08 04:00:07;;;;;;;33.90;17.98;;;1.60;82.50;;;;;;5016672;28;20022;-78
2020/12/08 04:02:34;;;;;;;40.05;20.77;;;1.60;82.50;;;;;;5034314;28;20037;-78
2020/12/08 04:04:59;;;;;;;39.70;20.27;;;1.60;82.80;;;;;;5034419;28;20116;-78
2020/12/08 04:07:25;;;;;;;37.05;19.35;;;1.50;83.00;;;;;;5034319;28;20540;-78
2020/12/08 04:09:50;;;;;;;38.80;19.25;;;1.50;83.20;;;;;;5034250;28;20033;-78
2020/12/08 04:12:16;;;;;;;35.88;19.05;;;1.50;83.30;;;;;;5016298;28;20022;-78
2020/12/08 04:14:41;;;;;;;41.78;20.73;;;1.50;84.00;;;;;;5034142;28;20367;-78
2020/12/08 04:17:07;;;;;;;39.08;20.45;;;1.50;83.10;;;;;;5040806;23;20065;-78
2020/12/08 04:19:33;;;;;;;42.20;21.45;;;1.50;82.80;;;;;;5032976;28;20036;-78
2020/12/08 04:21:59;;;;;;;41.45;20.95;;;1.50;82.70;;;;;;5034064;28;20109;-80
2020/12/08 04:24:25;;;;;;;39.05;19.35;;;1.50;82.90;;;;;;5033981;28;20018;-78
2020/12/08 04:26:51;;;;;;;41.30;20.13;;;1.50;83.00;;;;;;5033910;28;20022;-78
2020/12/08 04:29:16;;;;;;;41.13;20.50;;;1.50;83.00;;;;;;5033985;28;20095;-78
2020/12/08 04:31:42;;;;;;;38.08;19.67;;;1.50;83.00;;;;;;5033884;28;20433;-78
2020/12/08 04:34:07;;;;;;;44.30;22.30;;;1.50;83.10;;;;;;5033733;28;20429;-77
2020/12/08 04:36:33;;;;;;;46.55;22.23;;;1.50;83.00;;;;;;5033762;28;20037;-77
2020/12/08 04:38:59;;;;;;;41.90;21.33;;;1.40;83.30;;;;;;5033711;28;20355;-78
2020/12/08 04:41:25;;;;;;;43.58;21.48;;;1.40;83.40;;;;;;5033651;28;20033;-78
2020/12/08 04:43:53;;;;;;;40.83;20.75;;;1.40;83.40;;;;;;5033630;28;20025;-77
2020/12/08 04:46:20;;;;;;;39.15;20.08;;;1.40;83.20;;;;;;5033577;28;20076;-77
2020/12/08 04:48:47;;;;;;;36.75;19.23;;;1.40;83.00;;;;;;5033487;28;20470;-77
2020/12/08 04:51:12;;;;;;;39.08;20.30;;;1.30;83.10;;;;;;5033442;28;20475;-78
2020/12/08 04:53:38;;;;;;;42.13;20.48;;;1.30;83.10;;;;;;5033330;28;20124;-77
2020/12/08 04:56:03;;;;;;;44.83;21.85;;;1.30;83.40;;;;;;5033440;28;20029;-77
2020/12/08 04:58:29;;;;;;;40.22;20.48;;;1.30;83.30;;;;;;5033390;28;20383;-78
2020/12/08 05:00:55;;;;;;;42.17;22.40;;;1.30;83.30;;;;;;5033732;28;20492;-78
2020/12/08 05:03:25;;;;;;;40.65;20.20;;;1.30;83.30;;;;;;5034177;28;20037;-78
2020/12/08 05:05:51;;;;;;;42.13;20.85;;;1.40;83.20;;;;;;5034091;28;20021;-78
2020/12/08 05:08:17;;;;;;;43.50;21.23;;;1.40;83.00;;;;;;5032837;28;20479;-78
2020/12/08 05:10:43;;;;;;;44.55;21.77;;;1.40;82.80;;;;;;5033288;28;20505;-76
2020/12/08 05:13:15;;;;;;;44.55;22.08;;;1.40;82.90;;;;;;5033245;28;20079;-77
2020/12/08 05:15:41;;;;;;;44.88;21.77;;;1.30;83.20;;;;;;5032951;28;20071;-77
2020/12/08 05:18:07;;;;;;;43.28;22.17;;;1.40;83.30;;;;;;5033265;28;20038;-76
2020/12/08 05:20:33;;;;;;;43.58;21.92;;;1.30;83.60;;;;;;5033098;28;20057;-77
2020/12/08 05:23:00;;;;;;;44.75;21.88;;;1.30;83.70;;;;;;5033136;28;20064;-78
2020/12/08 05:25:27;;;;;;;43.60;22.10;;;1.40;83.70;;;;;;5033045;28;20022;-77
2020/12/08 05:27:58;;;;;;;43.50;22.30;;;1.40;83.80;;;;;;5033038;28;20021;-78
2020/12/08 05:30:25;;;;;;;36.92;20.40;;;1.50;83.90;;;;;;5032855;28;20041;-78
2020/12/08 05:32:52;;;;;;;42.47;21.92;;;1.50;83.90;;;;;;5032943;28;20025;-79
2020/12/08 05:35:25;;;;;;;36.92;18.98;;;1.60;83.80;;;;;;5032988;28;20026;-79
2020/12/08 05:37:54;;;;;;;38.00;19.48;;;1.70;83.70;;;;;;5032911;28;20048;-79
2020/12/08 05:40:25;;;;;;;34.28;17.70;;;1.70;83.50;;;;;;5033019;28;20120;-78
2020/12/08 05:42:53;;;;;;;37.30;18.30;;;1.70;83.20;;;;;;5032881;28;20053;-79
2020/12/08 05:45:23;;;;;;;37.40;21.15;;;1.70;83.30;;;;;;5033184;28;20029;-78
2020/12/08 05:47:50;;;;;;;41.53;21.70;;;1.70;82.90;;;;;;5032937;28;20105;-78
2020/12/08 05:50:17;;;;;;;41.50;22.33;;;1.60;82.70;;;;;;5032783;28;20038;-78
2020/12/08 05:52:47;;;;;;;37.17;19.45;;;1.60;82.50;;;;;;5032953;28;20052;-78
2020/12/08 05:55:19;;;;;;;35.20;19.38;;;1.50;82.50;;;;;;5032875;28;20033;-78
2020/12/08 05:57:45;;;;;;;40.05;21.08;;;1.40;82.70;;;;;;5016392;28;20056;-78
2020/12/08 06:00:26;;;;;;;37.58;20.20;;;1.40;82.90;;;;;;5033597;28;20022;-79
2020/12/08 06:03:12;;;;;;;39.20;19.90;;;1.50;83.20;;;;;;5033287;28;20041;-78
2020/12/08 06:05:42;;;;;;;;;;;1.50;83.30;;;;;;5034717;28;20045;-79
2020/12/08 06:08:16;;;;;;;36.35;18.33;;;1.50;83.30;;;;;;5032917;28;19988;-78
2020/12/08 06:10:50;;;;;;;35.97;18.52;;;1.40;83.20;;;;;;5014674;28;20084;-78
2020/12/08 06:13:33;;;;;;;34.05;18.38;;;1.50;83.40;;;;;;5032413;28;20062;-78
2020/12/08 06:16:00;;;;;;;35.45;18.75;;;1.50;83.40;;;;;;5032320;28;20042;-78
2020/12/08 06:18:33;;;;;;;32.97;17.80;;;1.50;83.40;;;;;;5032941;28;20037;-77
2020/12/08 06:21:01;;;;;;;35.55;18.08;;;1.50;83.50;;;;;;5035665;28;20029;-77
2020/12/08 06:23:27;;;;;;;35.33;18.73;;;1.40;83.30;;;;;;5036706;28;20040;-79
2020/12/08 06:26:03;;;;;;;33.72;17.70;;;1.40;83.30;;;;;;5036990;28;20479;-78
2020/12/08 06:28:29;;;;;;;34.78;18.80;;;1.40;83.30;;;;;;5036709;28;20470;-79
2020/12/08 06:31:03;;;;;;;34.92;18.48;;;1.40;83.20;;;;;;5036362;28;20056;-79
2020/12/08 06:33:30;;;;;;;36.55;19.27;;;1.40;83.10;;;;;;5036265;28;20021;-77
2020/12/08 06:36:01;;;;;;;32.72;17.65;;;1.40;83.00;;;;;;5036397;28;20029;-78
2020/12/08 06:38:28;;;;;;;32.47;17.83;;;1.40;82.80;;;;;;5018540;28;20381;-81
2020/12/08 06:40:54;;;;;;;30.63;16.52;;;1.30;82.80;;;;;;5035801;28;20045;-79
2020/12/08 06:43:21;;;;;;;29.20;16.10;;;1.20;82.80;;;;;;5036154;28;20033;-78
2020/12/08 06:45:47;;;;;;;26.70;15.32;;;1.20;82.80;;;;;;5035913;28;20063;-78
2020/12/08 06:48:20;;;;;;;29.00;15.68;;;1.20;83.00;;;;;;5035967;28;20025;-77
2020/12/08 06:50:47;;;;;;;34.72;17.95;;;1.20;83.00;;;;;;5017880;28;20462;-76
2020/12/08 06:53:14;;;;;;;36.22;19.55;;;1.10;82.80;;;;;;5035800;28;20029;-77
2020/12/08 06:55:48;;;;;;;39.05;20.52;;;1.00;82.60;;;;;;5035581;28;20470;-76
2020/12/08 06:58:17;;;;;;;39.30;20.63;;;0.90;82.40;;;;;;5035714;28;20032;-77
2020/12/08 07:00:45;;;;;;;40.33;20.05;;;0.90;82.30;;;;;;5035667;28;20361;-76
2020/12/08 07:03:11;;;;;;;36.67;19.20;;;0.90;82.30;;;;;;5035493;28;20108;-77
2020/12/08 07:05:37;;;;;;;43.10;20.50;;;0.90;82.20;;;;;;5035466;28;20505;-77
2020/12/08 07:08:05;;;;;;;41.22;20.67;;;0.90;82.30;;;;;;5017748;28;20057;-77
2020/12/08 07:10:39;;;;;;;44.70;22.15;;;0.80;82.20;;;;;;5035276;28;20033;-77
2020/12/08 07:13:13;;;;;;;46.78;23.63;;;0.90;82.20;;;;;;5035124;28;20025;-77
2020/12/08 07:15:39;;;;;;;38.67;20.38;;;0.80;81.90;;;;;;5034922;28;20021;-78
2020/12/08 07:18:07;;;;;;;42.05;20.50;;;0.80;81.90;;;;;;5017253;28;20083;-78
2020/12/08 07:20:33;;;;;;;42.28;20.75;;;0.80;81.90;;;;;;5016943;28;20430;-77
2020/12/08 07:23:04;;;;;;;43.55;21.42;;;0.80;81.90;;;;;;5034992;28;20021;-76
2020/12/08 07:25:31;;;;;;;44.15;21.90;;;0.80;82.10;;;;;;5035281;28;20487;-77
2020/12/08 07:27:57;;;;;;;44.35;22.00;;;0.70;82.30;;;;;;5035205;28;20029;-78
2020/12/08 07:30:27;;;;;;;46.47;22.55;;;0.70;82.60;;;;;;5034934;28;20259;-78
2020/12/08 07:32:54;;;;;;;47.40;23.83;;;0.70;82.80;;;;;;5034646;28;20486;-78
2020/12/08 07:35:30;;;;;;;44.85;21.50;;;0.70;82.60;;;;;;5035142;28;20466;-77
2020/12/08 07:37:57;;;;;;;48.65;22.77;;;0.70;82.70;;;;;;5034782;28;20037;-77
2020/12/08 07:40:34;;;;;;;47.25;21.98;;;0.80;82.50;;;;;;5034750;28;20033;-77
2020/12/08 07:43:01;;;;;;;41.10;19.80;;;0.70;82.20;;;;;;5034719;28;20067;-77
2020/12/08 07:45:27;;;;;;;44.88;22.00;;;0.70;82.20;;;;;;5034519;28;20034;-77
2020/12/08 07:47:56;;;;;;;42.03;21.15;;;0.80;82.20;;;;;;5034793;28;20108;-78
2020/12/08 07:50:30;;;;;;;34.97;18.00;;;0.80;81.90;;;;;;5034780;28;20478;-77
2020/12/08 07:53:08;;;;;;;34.97;17.45;;;0.70;81.50;;;;;;5017060;28;20028;-78
2020/12/08 07:55:52;;;;;;;35.08;18.15;;;0.70;81.30;;;;;;5034603;28;20436;-77
2020/12/08 07:58:18;;;;;;;34.38;17.25;;;0.70;81.80;;;;;;5034450;28;20383;-80
2020/12/08 08:00:43;;;;;;;35.50;17.65;;;0.70;82.80;;;;;;5035595;28;20036;-75
2020/12/08 08:03:09;;;;;;;36.40;18.90;;;1.10;87.20;;;;;;5034456;28;20025;-76
2020/12/08 08:05:34;;;;;;;41.88;21.35;;;1.50;87.80;;;;;;5034389;28;20332;-77
2020/12/08 08:08:00;;;;;;;42.38;21.48;;;1.80;84.20;;;;;;5034290;28;20025;-77
2020/12/08 08:10:25;;;;;;;39.60;21.55;;;2.10;81.60;;;;;;5033918;28;20044;-76
2020/12/08 08:12:51;;;;;;;41.67;22.15;;;2.60;80.90;;;;;;5034136;28;20029;-76
2020/12/08 08:15:17;;;;;;;40.70;21.55;;;3.10;78.50;;;;;;5033708;28;20478;-76
2020/12/08 08:17:42;;;;;;;42.97;22.50;;;3.50;75.00;;;;;;5016172;28;20096;-76
2020/12/08 08:20:08;;;;;;;39.78;22.25;;;3.80;73.80;;;;;;5034095;28;20026;-77
2020/12/08 08:22:34;;;;;;;34.75;19.33;;;4.40;72.50;;;;;;5034048;28;20038;-81
2020/12/08 08:25:00;;;;;;;39.85;20.92;;;4.60;69.30;;;;;;5034114;28;20029;-81
2020/12/08 08:27:25;;;;;;;36.47;20.02;;;4.50;66.90;;;;;;5016321;28;20021;-81
2020/12/08 08:29:51;;;;;;;37.50;19.90;;;4.20;65.80;;;;;;5032784;28;20075;-81
2020/12/08 08:32:16;;;;;;;40.70;21.08;;;3.90;66.10;;;;;;5016492;28;20030;-80
2020/12/08 08:34:42;;;;;;;38.28;21.45;;;3.50;66.80;;;;;;5033956;28;20108;-81
2020/12/08 08:37:08;;;;;;;43.30;21.67;;;3.20;67.90;;;;;;5033782;28;20025;-81
2020/12/08 08:39:33;;;;;;;36.40;19.48;;;3.00;69.20;;;;;;5033962;28;20025;-80
2020/12/08 08:41:59;;;;;;;38.42;19.45;;;2.90;70.10;;;;;;5033682;28;20475;-81
2020/12/08 08:44:24;;;;;;;35.92;19.40;;;2.90;70.50;;;;;;5033713;28;20569;-81
2020/12/08 08:46:50;;;;;;;36.05;20.15;;;2.90;70.70;;;;;;5034040;28;20382;-81
2020/12/08 08:49:16;;;;;;;33.75;17.92;;;3.00;70.20;;;;;;5033426;28;20131;-81
2020/12/08 08:51:46;;;;;;;35.13;19.08;;;3.20;70.00;;;;;;5015715;28;20036;-81
2020/12/08 08:54:13;;;;;;;32.33;19.02;;;3.40;69.30;;;;;;5033653;28;20091;-81
2020/12/08 08:56:39;;;;;;;35.15;18.52;;;3.60;68.60;;;;;;5033455;28;20021;-81
2020/12/08 08:59:06;;;;;;;32.13;17.25;;;3.70;67.80;;;;;;5032108;28;20083;-79
2020/12/08 09:01:35;;;;;;;25.55;15.20;;;3.80;67.00;;;;;;5033222;28;20025;-79
2020/12/08 09:04:01;;;;;;;26.98;15.43;;;4.00;66.40;;;;;;5034735;28;20029;-77
2020/12/08 09:06:27;;;;;;;30.08;16.58;;;4.00;66.00;;;;;;5034966;28;20429;-79
2020/12/08 09:08:52;;;;;;;28.83;16.50;;;3.90;67.00;;;;;;5033238;28;20032;-78
2020/12/08 09:11:18;;;;;;;28.42;15.98;;;3.80;67.70;;;;;;5033143;28;20160;-80
2020/12/08 09:13:44;;;;;;;27.02;16.65;;;3.70;68.80;;;;;;5033256;28;20147;-79
2020/12/08 09:16:11;;;;;;;29.70;16.27;;;3.70;67.60;;;;;;5034289;28;20045;-79
2020/12/08 09:18:36;;;;;;;29.17;16.60;;;3.80;67.60;;;;;;5034705;28;20017;-81
2020/12/08 09:21:02;;;;;;;28.15;16.92;;;3.90;67.20;;;;;;5031856;28;20113;-78
2020/12/08 09:23:28;;;;;;;27.05;15.88;;;4.00;67.00;;;;;;5032996;28;20022;-79
2020/12/08 09:25:54;;;;;;;32.13;17.92;;;4.10;66.50;;;;;;5033204;28;20022;-79
2020/12/08 09:28:21;;;;;;;27.42;15.73;;;4.30;66.00;;;;;;5032924;28;20025;-79
2020/12/08 09:30:47;;;;;;;30.88;16.65;;;4.50;65.90;;;;;;5032693;28;20029;-78
2020/12/08 09:33:13;;;;;;;30.42;17.13;;;4.40;65.00;;;;;;5033017;28;20066;-77
2020/12/08 09:35:39;;;;;;;31.08;17.10;;;4.30;65.30;;;;;;5033171;28;20024;-77
2020/12/08 09:38:05;;;;;;;26.45;16.02;;;4.20;65.60;;;;;;5033215;28;20017;-78
2020/12/08 09:40:31;;;;;;;25.02;15.63;;;4.40;65.70;;;;;;5032568;28;20470;-78
2020/12/08 09:42:57;;;;;;;25.52;15.52;;;4.80;65.10;;;;;;5015089;28;20082;-78
2020/12/08 09:45:22;;;;;;;29.98;16.45;;;4.80;64.80;;;;;;5032886;28;20109;-78
2020/12/08 09:47:48;;;;;;;26.02;15.75;;;4.80;64.40;;;;;;5032846;28;20470;-79
2020/12/08 09:50:14;;;;;;;24.10;14.65;;;5.10;64.40;;;;;;5032887;28;20051;-79
2020/12/08 09:52:40;;;;;;;26.10;16.25;;;5.40;63.40;;;;;;5032829;28;20029;-81
2020/12/08 09:55:06;;;;;;;27.48;15.70;;;5.80;62.30;;;;;;5034814;28;20087;-80
2020/12/08 09:57:32;;;;;;;24.13;14.57;;;6.00;60.90;;;;;;5036799;28;20052;-79
2020/12/08 09:59:57;;;;;;;23.17;14.75;;;6.40;60.20;;;;;;5036959;28;20051;-81
2020/12/08 10:02:24;;;;;;;24.25;15.45;;;6.70;58.90;;;;;;5035758;28;20030;-79
2020/12/08 10:04:51;;;;;;;24.65;14.02;;;7.00;57.70;;;;;;5036279;28;20030;-80
2020/12/08 10:07:18;;;;;;;22.58;14.63;;;7.10;56.90;;;;;;5019044;28;20025;-80
2020/12/08 10:09:45;;;;;;;22.85;15.20;;;7.50;56.10;;;;;;5036499;28;20041;-79
2020/12/08 10:12:11;;;;;;;22.73;14.82;;;7.70;54.70;;;;;;5018999;28;20048;-79
2020/12/08 10:14:36;;;;;;;24.63;15.95;;;7.60;53.50;;;;;;5018729;28;20482;-79
2020/12/08 10:17:03;;;;;;;25.75;14.48;;;7.20;53.30;;;;;;5036599;28;20084;-79
2020/12/08 10:19:30;;;;;;;24.08;15.93;;;7.20;54.20;;;;;;5036256;28;20026;-79
2020/12/08 10:21:56;;;;;;;22.17;14.52;;;7.50;54.30;;;;;;5036370;28;20037;-78
2020/12/08 10:24:23;;;;;;;24.48;15.73;;;7.90;53.40;;;;;;5034957;28;20032;-78
2020/12/08 10:26:49;;;;;;;24.75;15.82;;;8.20;52.30;;;;;;5036137;28;20478;-82
2020/12/08 10:29:14;;;;;;;22.08;15.35;;;8.20;51.60;;;;;;5036439;28;20107;-81
2020/12/08 10:31:40;;;;;;;23.98;14.57;;;8.50;51.10;;;;;;5036563;28;20063;-80
2020/12/08 10:34:06;;;;;;;21.75;14.30;;;8.80;50.60;;;;;;5019980;28;20072;-83
2020/12/08 10:36:31;;;;;;;21.77;14.25;;;8.90;49.80;;;;;;5037379;28;20186;-83
2020/12/08 10:38:57;;;;;;;25.98;15.43;;;9.20;49.30;;;;;;5019973;28;20022;-84
2020/12/08 10:41:24;;;;;;;24.70;15.93;;;9.50;48.70;;;;;;5036370;28;20018;-84
2020/12/08 10:43:50;;;;;;;22.65;14.50;;;9.70;48.10;;;;;;5019988;28;20033;-84
2020/12/08 10:46:15;;;;;;;19.92;13.38;;;9.80;47.70;;;;;;5035825;28;20375;-83
2020/12/08 10:48:41;;;;;;;20.00;13.32;;;10.10;47.60;;;;;;5037815;28;20028;-83
2020/12/08 10:51:07;;;;;;;18.85;12.95;;;10.20;46.80;;;;;;5019155;28;20556;-82
2020/12/08 10:53:32;;;;;;;23.00;14.50;;;10.30;46.10;;;;;;5036982;28;20017;-82
2020/12/08 10:55:58;;;;;;;20.20;13.27;;;10.30;45.60;;;;;;5018570;28;20104;-83
2020/12/08 10:58:23;;;;;;;23.15;14.60;;;10.20;45.40;;;;;;5036191;28;20022;-82
2020/12/08 11:00:49;;;;;;;22.65;15.48;;;9.90;45.50;;;;;;5035052;28;20124;-82
2020/12/08 11:03:14;;;;;;;23.25;15.35;;;9.70;45.90;;;;;;5018093;28;20025;-82
2020/12/08 11:05:40;;;;;;;19.60;13.25;;;9.30;46.30;;;;;;5033967;28;20026;-83
2020/12/08 11:08:06;;;;;;;21.33;14.80;;;8.90;47.10;;;;;;5034973;28;20385;-82
2020/12/08 11:10:32;;;;;;;22.67;15.00;;;8.90;47.90;;;;;;5035647;28;20038;-82
2020/12/08 11:12:58;;;;;;;23.08;15.07;;;9.10;48.10;;;;;;5207159;23;20017;-81
2020/12/08 11:15:23;;;;;;;22.55;15.15;;;9.40;48.00;;;;;;5035141;28;20034;-83
2020/12/08 11:17:49;;;;;;;20.20;13.32;;;9.80;47.40;;;;;;5018476;28;20102;-82
2020/12/08 11:20:14;;;;;;;18.75;13.43;;;10.30;46.80;;;;;;5035530;28;20029;-82
2020/12/08 11:22:40;;;;;;;18.35;13.07;;;10.90;46.00;;;;;;5034099;28;20071;-83
2020/12/08 11:25:06;;;;;;;20.05;13.80;;;11.50;44.70;;;;;;5035344;28;20108;-82
2020/12/08 11:27:32;;;;;;;21.55;14.65;;;12.10;43.40;;;;;;5035761;28;20390;-85
2020/12/08 11:29:57;;;;;;;19.77;14.35;;;12.60;41.80;;;;;;5036070;28;20597;-82
2020/12/08 11:32:23;;;;;;;20.48;14.40;;;12.50;40.70;;;;;;5018605;28;20057;-83
2020/12/08 11:34:50;;;;;;;19.92;13.57;;;13.20;39.90;;;;;;5034819;28;20382;-83
2020/12/08 11:37:16;;;;;;;18.25;13.70;;;13.90;39.10;;;;;;5035114;28;20025;-83
2020/12/08 11:39:42;;;;;;;17.73;13.30;;;14.80;38.10;;;;;;5034316;28;20367;-85
2020/12/08 11:42:08;;;;;;;18.15;14.00;;;15.50;37.00;;;;;;5035179;28;20029;-85
2020/12/08 11:44:34;;;;;;;17.48;13.02;;;16.10;35.80;;;;;;5019150;28;20041;-87
2020/12/08 11:47:00;;;;;;;18.45;13.85;;;16.50;34.50;;;;;;5021011;28;20025;-87
2020/12/08 11:49:26;;;;;;;17.55;13.77;;;16.70;33.50;;;;;;5037142;28;20022;-85
2020/12/08 11:54:20;;;;;;;19.65;14.35;;;17.00;32.80;;;;;;4976207;28;20047;-81
2020/12/08 11:56:48;;;;;;;19.30;14.85;;;17.40;32.30;;;;;;5491342;23;20029;-81
2020/12/08 11:59:14;;;;;;;19.92;15.48;;;17.70;31.60;;;;;;5018642;28;20060;-81
2020/12/08 12:01:40;;;;;;;18.42;14.75;;;17.10;31.00;;;;;;5280190;23;20510;-81
2020/12/08 12:04:05;;;;;;;22.20;17.95;;;17.40;30.90;;;;;;4998669;28;20437;-81
2020/12/08 12:06:31;;;;;;;22.27;17.40;;;17.30;30.70;;;;;;5009933;28;20033;-82
2020/12/08 12:08:56;;;;;;;21.58;16.17;;;17.10;30.70;;;;;;5033312;28;20025;-81
2020/12/08 12:11:22;;;;;;;23.02;16.65;;;16.90;30.80;;;;;;4999217;28;20049;-77
2020/12/08 12:13:47;;;;;;;17.20;13.25;;;17.00;30.90;;;;;;5015211;28;20470;-73
2020/12/08 12:16:15;;;;;;;16.75;13.02;;;16.60;33.40;;;;;;5025366;28;20025;-79
2020/12/08 12:18:41;;;;;;;17.20;13.98;;;16.30;35.00;;;;;;5033672;28;20014;-81
2020/12/08 12:21:06;;;;;;;18.42;13.50;;;15.90;35.40;;;;;;5028365;28;20038;-77
2020/12/08 12:23:32;;;;;;;20.92;15.52;;;15.90;35.70;;;;;;5019674;28;20471;-76
2020/12/08 12:25:58;;;;;;;18.35;14.68;;;15.80;35.90;;;;;;5014923;28;20063;-77
2020/12/08 12:28:24;;;;;;;19.13;14.75;;;15.50;36.00;;;;;;5015234;28;20033;-77
2020/12/08 12:30:49;;;;;;;17.52;13.52;;;15.20;36.00;;;;;;5014703;28;20042;-77
2020/12/08 12:33:15;;;;;;;19.45;14.18;;;15.00;36.10;;;;;;5014189;28;20030;-76
2020/12/08 12:35:41;;;;;;;20.45;14.88;;;14.80;36.20;;;;;;5013498;28;20568;-76